createdAt,value
2023-05-12T00:01:20.108Z,2.92
2023-05-12T00:03:47.005Z,3.28
2023-05-12T00:06:14.034Z,3.30
2023-05-12T00:08:40.590Z,3.42
2023-05-12T00:11:07.456Z,2.83
2023-05-12T00:13:34.143Z,3.33
2023-05-12T00:16:00.865Z,3.25
2023-05-12T00:18:28.655Z,3.10
2023-05-12T00:20:57.373Z,3.22
2023-05-12T00:23:24.093Z,2.72
2023-05-12T00:25:51.131Z,3.15
2023-05-12T00:28:18.876Z,3.03
2023-05-12T00:30:45.513Z,3.40
2023-05-12T00:33:12.491Z,3.30
2023-05-12T00:35:39.070Z,3.22
2023-05-12T00:38:05.637Z,3.15
2023-05-12T00:40:32.184Z,2.95
2023-05-12T00:42:58.783Z,3.20
2023-05-12T00:45:25.386Z,2.70
2023-05-12T00:47:53.172Z,3.12
2023-05-12T00:50:20.928Z,2.87
2023-05-12T00:52:51.900Z,3.45
2023-05-12T00:55:18.954Z,3.42
2023-05-12T00:57:45.907Z,3.28
2023-05-12T01:00:13.037Z,3.15
2023-05-12T01:02:40.076Z,3.70
2023-05-12T01:05:07.118Z,3.25
2023-05-12T01:07:33.837Z,3.30
2023-05-12T01:10:00.443Z,3.15
2023-05-12T01:15:02.353Z,3.60
2023-05-12T01:17:33.272Z,3.42
2023-05-12T01:20:08.453Z,3.70
2023-05-12T01:22:36.109Z,3.30
2023-05-12T01:25:05.422Z,2.90
2023-05-12T01:28:20.212Z,3.50
2023-05-12T01:31:04.055Z,3.60
2023-05-12T01:33:31.351Z,3.42
2023-05-12T01:35:57.901Z,3.12
2023-05-12T01:38:24.648Z,3.55
2023-05-12T01:41:09.720Z,3.20
2023-05-12T01:43:38.901Z,3.80
2023-05-12T01:46:05.585Z,3.05
2023-05-12T01:48:32.135Z,2.70
2023-05-12T01:51:03.429Z,3.15
2023-05-12T01:53:29.987Z,3.15
2023-05-12T01:56:11.890Z,3.00
2023-05-12T01:58:38.505Z,3.03
2023-05-12T02:01:05.138Z,3.33
2023-05-12T02:03:31.963Z,3.47
2023-05-12T02:06:45.576Z,3.22
2023-05-12T02:09:58.994Z,3.00
2023-05-12T02:12:49.946Z,3.20
2023-05-12T02:15:16.643Z,3.20
2023-05-12T02:17:43.258Z,2.92
2023-05-12T02:20:12.277Z,3.45
2023-05-12T02:22:39.242Z,3.42
2023-05-12T02:25:06.473Z,3.42
2023-05-12T02:27:33.003Z,3.33
2023-05-12T02:29:59.561Z,3.08
2023-05-12T02:32:28.201Z,3.20
2023-05-12T02:34:57.940Z,3.40
2023-05-12T02:38:13.648Z,2.95
2023-05-12T02:41:18.960Z,3.10
2023-05-12T02:43:45.514Z,3.60
2023-05-12T02:46:12.131Z,3.28
2023-05-12T02:48:38.729Z,3.28
2023-05-12T02:51:05.481Z,3.60
2023-05-12T02:53:32.356Z,3.00
2023-05-12T02:56:11.351Z,3.20
2023-05-12T02:58:39.377Z,3.40
2023-05-12T03:04:01.356Z,3.17
2023-05-12T03:06:56.789Z,3.72
2023-05-12T03:09:35.475Z,3.25
2023-05-12T03:12:07.850Z,3.87
2023-05-12T03:14:34.409Z,3.85
2023-05-12T03:17:01.015Z,3.90
2023-05-12T03:19:30.129Z,3.50
2023-05-12T03:21:56.700Z,3.87
2023-05-12T03:24:23.344Z,3.90
2023-05-12T03:26:55.319Z,3.92
2023-05-12T03:29:22.363Z,3.95
2023-05-12T03:31:48.961Z,3.70
2023-05-12T03:34:15.522Z,3.85
2023-05-12T03:36:50.135Z,3.65
2023-05-12T03:39:38.837Z,3.72
2023-05-12T03:42:14.539Z,3.83
2023-05-12T03:44:41.302Z,3.72
2023-05-12T03:47:07.900Z,3.90
2023-05-12T03:49:34.520Z,3.85
2023-05-12T03:52:01.053Z,4.15
2023-05-12T03:57:03.763Z,3.47
2023-05-12T03:59:33.313Z,4.00
2023-05-12T04:01:59.957Z,3.62
2023-05-12T04:04:35.365Z,3.90
2023-05-12T04:07:01.901Z,4.07
2023-05-12T04:09:46.929Z,3.72
2023-05-12T04:13:00.290Z,3.72
2023-05-12T04:15:42.734Z,3.97
2023-05-12T04:38:41.976Z,3.78
2023-05-12T04:41:09.231Z,3.50
2023-05-12T04:46:05.710Z,4.07
2023-05-12T04:48:34.634Z,4.10
2023-05-12T04:51:01.294Z,4.03
2023-05-12T04:53:28.257Z,4.20
2023-05-12T04:55:56.674Z,3.83
2023-05-12T04:58:23.423Z,4.30
2023-05-12T05:00:50.057Z,3.90
2023-05-12T05:03:16.701Z,4.00
2023-05-12T05:05:43.366Z,3.80
2023-05-12T05:08:10.230Z,4.25
2023-05-12T05:10:37.171Z,4.03
2023-05-12T05:13:03.694Z,3.78
2023-05-12T05:15:30.265Z,3.92
2023-05-12T05:17:56.956Z,3.95
2023-05-12T05:20:27.863Z,4.32
2023-05-12T05:22:56.488Z,4.30
2023-05-12T05:25:23.089Z,4.37
2023-05-12T05:27:49.758Z,4.10
2023-05-12T05:30:19.267Z,4.80
2023-05-12T05:32:48.940Z,4.30
2023-05-12T05:35:15.786Z,4.35
2023-05-12T05:37:42.735Z,4.37
2023-05-12T05:40:11.274Z,4.25
2023-05-12T05:42:37.905Z,4.40
2023-05-12T05:47:39.747Z,4.75
2023-05-12T05:50:06.911Z,4.87
2023-05-12T05:52:33.464Z,4.22
2023-05-12T05:56:07.243Z,4.47
2023-05-12T05:59:03.172Z,4.35
2023-05-12T06:01:34.666Z,4.90
2023-05-12T06:06:36.497Z,4.95
2023-05-12T06:09:03.085Z,4.60
2023-05-12T06:11:29.621Z,4.80
2023-05-12T06:13:56.236Z,4.87
2023-05-12T06:16:22.909Z,5.10
2023-05-12T06:18:49.598Z,4.28
2023-05-12T06:21:16.219Z,4.53
2023-05-12T06:23:42.774Z,4.30
2023-05-12T06:26:09.637Z,4.87
2023-05-12T06:29:00.452Z,5.10
2023-05-12T06:31:27.234Z,4.85
2023-05-12T06:33:53.841Z,5.15
2023-05-12T06:36:20.536Z,4.95
2023-05-12T06:38:47.092Z,4.78
2023-05-12T06:42:03.263Z,4.55
2023-05-12T06:44:54.525Z,4.70
2023-05-12T06:47:21.143Z,4.53
2023-05-12T06:49:47.976Z,4.55
2023-05-12T06:52:14.514Z,5.43
2023-05-12T06:54:41.025Z,4.70
2023-05-12T06:57:07.631Z,4.50
2023-05-12T06:59:34.488Z,5.15
2023-05-12T07:02:01.325Z,4.90
2023-05-12T07:04:28.025Z,4.47
2023-05-12T07:06:54.619Z,4.57
2023-05-12T07:09:21.215Z,5.20
2023-05-12T07:11:48.279Z,5.10
2023-05-12T07:14:14.920Z,4.97
2023-05-12T07:16:41.483Z,5.07
2023-05-12T07:19:09.602Z,5.30
2023-05-12T07:21:37.382Z,5.32
2023-05-12T07:24:06.041Z,4.87
2023-05-12T07:26:32.683Z,4.62
2023-05-12T07:29:00.842Z,5.05
2023-05-12T07:31:27.999Z,4.37
2023-05-12T07:33:54.796Z,5.20
2023-05-12T07:36:22.053Z,4.85
2023-05-12T07:38:48.913Z,4.80
2023-05-12T07:41:15.524Z,4.97
2023-05-12T07:43:42.074Z,4.62
2023-05-12T07:46:08.667Z,5.03
2023-05-12T07:48:39.952Z,4.82
2023-05-12T07:51:07.931Z,4.60
2023-05-12T07:53:34.750Z,4.78
2023-05-12T07:56:01.838Z,4.57
2023-05-12T07:58:28.434Z,5.10
2023-05-12T08:00:55.023Z,4.82
2023-05-12T08:03:21.650Z,5.75
2023-05-12T08:05:48.253Z,4.43
2023-05-12T08:08:16.783Z,4.53
2023-05-12T08:10:44.306Z,4.43
2023-05-12T08:13:10.893Z,4.68
2023-05-12T08:15:37.424Z,4.32
2023-05-12T08:18:04.231Z,4.68
2023-05-12T08:20:31.555Z,4.62
2023-05-12T08:22:58.074Z,4.97
2023-05-12T08:25:25.035Z,4.85
2023-05-12T08:27:51.601Z,4.78
2023-05-12T08:30:18.546Z,4.87
2023-05-12T08:32:45.120Z,4.65
2023-05-12T08:35:11.687Z,4.95
2023-05-12T08:37:38.337Z,5.20
2023-05-12T08:40:31.692Z,4.50
2023-05-12T08:43:26.036Z,4.40
2023-05-12T08:46:00.124Z,4.35
2023-05-12T08:48:29.361Z,4.37
2023-05-12T08:50:57.899Z,4.70
2023-05-12T08:53:27.777Z,4.30
2023-05-12T08:57:09.815Z,5.03
2023-05-12T08:58:43.052Z,4.68
2023-05-12T09:01:12.117Z,5.22
2023-05-12T09:03:39.088Z,5.32
2023-05-12T09:06:07.236Z,5.35
2023-05-12T09:08:35.800Z,6.07
2023-05-12T09:11:02.764Z,5.57
2023-05-12T09:13:52.573Z,5.97
2023-05-12T09:16:23.820Z,5.50
2023-05-12T09:18:52.975Z,6.32
2023-05-12T09:21:20.019Z,6.18
2023-05-12T09:24:07.365Z,5.30
2023-05-12T09:26:54.119Z,5.35
2023-05-12T09:29:31.310Z,5.80
2023-05-12T09:32:02.870Z,5.72
2023-05-12T09:34:41.239Z,5.30
2023-05-12T09:37:08.573Z,5.80
2023-05-12T09:39:36.590Z,5.70
2023-05-12T09:42:03.427Z,5.93
2023-05-12T09:44:32.353Z,6.30
2023-05-12T09:47:29.429Z,6.28
2023-05-12T09:50:16.301Z,5.37
2023-05-12T09:52:42.981Z,5.53
2023-05-12T09:55:12.194Z,5.18
2023-05-12T09:57:45.718Z,5.32
2023-05-12T10:03:57.552Z,5.18
2023-05-12T10:06:32.224Z,4.55
2023-05-12T10:09:06.415Z,5.45
2023-05-12T10:11:33.561Z,5.60
2023-05-12T10:14:09.639Z,6.05
2023-05-12T10:16:36.867Z,6.82
2023-05-12T10:19:04.560Z,7.50
2023-05-12T10:21:32.089Z,7.45
2023-05-12T10:23:59.358Z,7.57
2023-05-12T10:26:27.402Z,6.87
2023-05-12T10:28:54.207Z,6.85
2023-05-12T10:31:22.330Z,7.65
2023-05-12T10:34:00.216Z,7.35
2023-05-12T10:36:26.949Z,7.18
2023-05-12T10:38:54.779Z,7.20
2023-05-12T10:41:32.796Z,7.65
2023-05-12T10:43:59.740Z,8.23
2023-05-12T10:46:27.221Z,7.57
2023-05-12T10:48:57.855Z,8.57
2023-05-12T10:51:28.294Z,7.82
2023-05-12T10:54:03.857Z,8.70
2023-05-12T10:56:51.427Z,7.90
2023-05-12T10:59:20.647Z,8.75
2023-05-12T11:02:05.124Z,8.05
2023-05-12T11:04:50.605Z,9.00
2023-05-12T11:07:24.495Z,8.80
2023-05-12T11:09:58.267Z,8.77
2023-05-12T11:12:29.421Z,8.48
2023-05-12T11:14:56.018Z,8.88
2023-05-12T11:17:22.651Z,8.88
2023-05-12T11:19:51.028Z,8.48
2023-05-12T11:22:22.512Z,9.55
2023-05-12T11:24:51.195Z,10.10
2023-05-12T11:27:20.491Z,9.20
2023-05-12T11:30:08.239Z,9.88
2023-05-12T11:32:34.825Z,9.68
2023-05-12T11:35:10.570Z,10.48
2023-05-12T11:37:39.798Z,9.05
2023-05-12T11:40:31.267Z,9.70
2023-05-12T11:43:20.266Z,10.30
2023-05-12T11:45:49.690Z,10.20
2023-05-12T11:48:16.886Z,10.25
2023-05-12T11:50:47.626Z,9.20
2023-05-12T11:53:17.409Z,9.30
2023-05-12T11:55:55.008Z,8.32
2023-05-12T11:58:30.718Z,8.48
2023-05-12T12:01:08.301Z,8.52
2023-05-12T12:03:48.970Z,8.18
2023-05-12T12:06:16.536Z,7.65
2023-05-12T12:09:26.030Z,8.05
2023-05-12T12:12:45.929Z,7.80
2023-05-12T12:15:13.107Z,8.00
2023-05-12T12:17:40.518Z,7.90
2023-05-12T12:20:09.011Z,8.20
2023-05-12T12:22:36.162Z,7.87
2023-05-12T12:25:03.883Z,6.97
2023-05-12T12:27:45.798Z,7.70
2023-05-12T12:30:13.223Z,7.68
2023-05-12T12:32:39.813Z,7.00
2023-05-12T12:35:06.889Z,6.93
2023-05-12T12:37:33.503Z,7.47
2023-05-12T12:40:44.005Z,7.65
2023-05-12T12:43:22.939Z,7.00
2023-05-12T12:45:49.636Z,7.28
2023-05-12T12:48:16.230Z,7.22
2023-05-12T12:50:42.793Z,7.35
2023-05-12T12:53:09.811Z,7.75
2023-05-12T12:55:36.784Z,6.78
2023-05-12T13:03:34.762Z,7.10
2023-05-12T13:06:01.332Z,6.95
2023-05-12T13:08:33.682Z,7.85
2023-05-12T13:11:00.779Z,8.10
2023-05-12T13:16:56.335Z,7.95
2023-05-12T13:19:22.990Z,7.10
2023-05-12T13:21:49.748Z,7.00
2023-05-12T13:24:16.643Z,6.75
2023-05-12T13:26:43.217Z,6.62
2023-05-12T13:29:09.817Z,6.87
2023-05-12T13:37:47.622Z,8.07
2023-05-12T13:43:13.342Z,7.57
2023-05-12T13:45:40.160Z,8.15
2023-05-12T13:50:51.645Z,7.40
2023-05-12T13:53:18.228Z,7.90
2023-05-12T13:55:45.084Z,8.57
2023-05-12T14:06:59.518Z,7.87
2023-05-12T14:09:26.187Z,8.25
2023-05-12T14:17:09.743Z,8.93
2023-05-12T14:19:36.327Z,8.48
2023-05-12T14:22:05.900Z,8.73
2023-05-12T14:24:36.575Z,8.55
2023-05-12T14:27:03.461Z,7.53
2023-05-12T14:29:32.894Z,7.37
2023-05-12T14:31:59.952Z,7.57
2023-05-12T14:34:26.607Z,8.15
2023-05-12T14:36:54.155Z,7.75
2023-05-12T14:39:20.817Z,9.07
2023-05-12T14:41:47.394Z,8.80
2023-05-12T14:44:14.270Z,9.00
2023-05-12T14:46:40.808Z,8.00
2023-05-12T14:49:10.999Z,8.30
2023-05-12T14:51:41.536Z,8.80
2023-05-12T14:54:21.895Z,7.75
2023-05-12T14:56:51.178Z,7.85
2023-05-12T14:59:17.723Z,8.45
2023-05-12T15:01:44.415Z,8.00
2023-05-12T15:04:11.015Z,8.75
2023-05-12T15:06:38.134Z,8.25
2023-05-12T15:09:05.022Z,7.68
2023-05-12T15:11:31.617Z,8.30
2023-05-12T15:13:58.227Z,8.63
2023-05-12T15:16:26.222Z,8.20
2023-05-12T15:18:52.920Z,7.75
2023-05-12T15:21:19.444Z,8.52
2023-05-12T15:23:46.003Z,8.43
2023-05-12T15:26:27.114Z,8.82
2023-05-12T15:28:58.327Z,9.68
2023-05-12T15:31:28.244Z,9.90
2023-05-12T15:33:56.648Z,10.80
2023-05-12T15:36:23.276Z,9.93
2023-05-12T15:38:49.866Z,9.13
2023-05-12T15:41:16.474Z,8.13
2023-05-12T15:43:43.014Z,8.13
2023-05-12T15:46:11.025Z,8.32
2023-05-12T15:48:37.866Z,8.10
2023-05-12T15:51:04.968Z,8.02
2023-05-12T15:53:31.720Z,8.98
2023-05-12T15:56:05.600Z,9.32
2023-05-12T15:58:32.370Z,8.88
2023-05-12T16:00:59.516Z,7.90
2023-05-12T16:03:26.430Z,7.70
2023-05-12T16:05:53.419Z,7.65
2023-05-12T16:08:20.442Z,8.38
2023-05-12T16:10:47.190Z,8.02
2023-05-12T16:13:14.481Z,8.05
2023-05-12T16:15:41.079Z,8.48
2023-05-12T16:18:10.916Z,8.07
2023-05-12T16:20:38.817Z,8.32
2023-05-12T16:23:05.465Z,9.05
2023-05-12T16:25:32.012Z,8.02
2023-05-12T16:27:58.552Z,8.52
2023-05-12T16:30:25.106Z,11.93
2023-05-12T16:32:51.799Z,10.63
2023-05-12T16:35:19.076Z,9.50
2023-05-12T16:37:45.960Z,8.30
2023-05-12T16:40:13.041Z,7.75
2023-05-12T16:42:39.585Z,8.50
2023-05-12T16:45:08.863Z,7.95
2023-05-12T16:47:35.536Z,7.90
2023-05-12T16:50:08.178Z,7.80
2023-05-12T16:52:34.833Z,8.40
2023-05-12T16:55:01.398Z,8.95
2023-05-12T16:57:28.000Z,7.37
2023-05-12T16:59:54.509Z,7.07
2023-05-12T17:02:21.120Z,7.15
2023-05-12T17:04:47.991Z,6.60
2023-05-12T17:07:14.715Z,6.93
2023-05-12T17:09:41.329Z,7.30
2023-05-12T17:12:08.537Z,7.25
2023-05-12T17:14:35.238Z,7.25
2023-05-12T17:17:02.306Z,6.70
2023-05-12T17:19:29.251Z,7.65
2023-05-12T17:21:55.942Z,7.25
2023-05-12T17:24:22.477Z,7.10
2023-05-12T17:26:49.259Z,7.57
2023-05-12T17:29:16.028Z,7.35
2023-05-12T17:31:43.034Z,7.37
2023-05-12T17:34:09.737Z,7.25
2023-05-12T17:36:36.396Z,7.10
2023-05-12T17:39:03.586Z,7.07
2023-05-12T17:41:30.432Z,7.20
2023-05-12T17:43:57.144Z,6.97
2023-05-12T17:46:23.808Z,7.25
2023-05-12T17:48:50.712Z,7.10
2023-05-12T17:51:18.213Z,7.07
2023-05-12T17:53:44.753Z,6.97
2023-05-12T17:56:11.601Z,7.78
2023-05-12T17:58:38.508Z,7.20
2023-05-12T18:01:05.217Z,7.45
2023-05-12T18:03:31.868Z,7.25
2023-05-12T18:05:58.456Z,7.37
2023-05-12T18:08:25.042Z,7.05
2023-05-12T18:10:51.856Z,7.47
2023-05-12T18:13:18.732Z,7.82
2023-05-12T18:15:45.262Z,6.95
2023-05-12T18:18:12.503Z,7.20
2023-05-12T18:20:39.169Z,7.12
2023-05-12T18:23:05.803Z,7.70
2023-05-12T18:25:32.441Z,7.15
2023-05-12T18:27:59.058Z,7.10
2023-05-12T18:30:25.718Z,7.03
2023-05-12T18:32:52.380Z,6.80
2023-05-12T18:35:19.756Z,6.50
2023-05-12T18:37:46.568Z,6.40
2023-05-12T18:40:13.210Z,7.07
2023-05-12T18:42:39.877Z,6.28
2023-05-12T18:45:07.084Z,6.78
2023-05-12T18:47:34.408Z,7.18
2023-05-12T18:50:01.582Z,6.40
2023-05-12T18:52:28.099Z,6.18
2023-05-12T18:54:54.661Z,6.28
2023-05-12T18:57:21.664Z,5.80
2023-05-12T18:59:48.366Z,6.32
2023-05-12T19:02:30.384Z,6.28
2023-05-12T19:04:59.026Z,5.90
2023-05-12T19:07:25.652Z,5.70
2023-05-12T19:09:52.177Z,6.10
2023-05-12T19:13:05.409Z,5.95
2023-05-12T19:19:26.498Z,5.75
2023-05-12T19:27:30.720Z,6.50
2023-05-12T19:29:57.674Z,6.85
2023-05-12T19:32:34.450Z,6.70
2023-05-12T19:35:01.146Z,7.20
2023-05-12T19:37:27.879Z,6.68
2023-05-12T19:39:54.421Z,6.90
2023-05-12T19:43:00.519Z,7.22
2023-05-12T19:45:58.291Z,7.37
2023-05-12T19:48:24.952Z,7.07
2023-05-12T19:50:54.107Z,6.97
2023-05-12T19:53:20.958Z,7.03
2023-05-12T19:55:47.514Z,7.50
2023-05-12T19:58:14.040Z,7.18
2023-05-12T20:00:41.222Z,7.18
2023-05-12T20:03:08.217Z,7.05
2023-05-12T20:05:36.574Z,6.97
2023-05-12T20:08:03.376Z,7.45
2023-05-12T20:10:30.096Z,7.30
2023-05-12T20:12:56.744Z,7.85
2023-05-12T20:15:23.458Z,7.82
2023-05-12T20:17:50.172Z,7.95
2023-05-12T20:20:16.751Z,7.72
2023-05-12T20:22:43.352Z,7.62
2023-05-12T20:25:12.402Z,7.37
2023-05-12T20:27:38.965Z,8.18
2023-05-12T20:30:06.414Z,7.65
2023-05-12T20:32:33.093Z,7.93
2023-05-12T20:34:59.746Z,7.45
2023-05-12T20:37:26.317Z,7.60
2023-05-12T20:39:54.072Z,7.47
2023-05-12T20:42:20.698Z,7.47
2023-05-12T20:44:47.397Z,7.62
2023-05-12T20:47:13.997Z,8.75
2023-05-12T20:49:40.999Z,7.95
2023-05-12T20:52:07.852Z,8.32
2023-05-12T20:54:34.409Z,7.65
2023-05-12T20:57:01.070Z,7.40
2023-05-12T20:59:27.612Z,8.40
2023-05-12T21:01:56.466Z,8.15
2023-05-12T21:04:23.189Z,8.35
2023-05-12T21:06:51.513Z,9.13
2023-05-12T21:09:20.174Z,9.20
2023-05-12T21:11:47.252Z,8.98
2023-05-12T21:14:14.061Z,9.10
2023-05-12T21:16:40.758Z,9.18
2023-05-12T21:19:09.237Z,8.73
2023-05-12T21:21:36.094Z,8.48
2023-05-12T21:24:02.708Z,8.75
2023-05-12T21:26:29.354Z,8.05
2023-05-12T21:28:56.218Z,8.75
2023-05-12T21:31:22.837Z,8.85
2023-05-12T21:33:49.574Z,8.45
2023-05-12T21:36:16.103Z,8.48
2023-05-12T21:38:42.773Z,8.48
2023-05-12T21:41:09.356Z,8.02
2023-05-12T21:43:35.928Z,7.95
2023-05-12T21:46:04.072Z,8.38
2023-05-12T21:48:32.065Z,8.55
2023-05-12T21:51:02.875Z,7.72
2023-05-12T21:53:29.625Z,8.40
2023-05-12T21:55:56.279Z,8.82
2023-05-12T21:58:23.750Z,8.68
2023-05-12T22:00:53.637Z,8.07
2023-05-12T22:03:21.826Z,8.27
2023-05-12T22:05:48.727Z,8.07
2023-05-12T22:08:16.323Z,8.70
2023-05-12T22:10:43.843Z,8.45
2023-05-12T22:13:10.557Z,8.07
2023-05-12T22:15:37.215Z,8.35
2023-05-12T22:18:03.937Z,8.75
2023-05-12T22:20:30.521Z,8.45
2023-05-12T22:22:57.632Z,8.27
2023-05-12T22:25:24.347Z,8.45
2023-05-12T22:27:50.941Z,7.72
2023-05-12T22:30:18.857Z,7.25
2023-05-12T22:35:41.605Z,7.35
2023-05-12T22:38:10.576Z,6.75
2023-05-12T22:46:20.468Z,7.35
2023-05-12T22:52:37.706Z,7.35
2023-05-12T22:55:04.769Z,7.50
2023-05-12T23:00:07.358Z,7.85
2023-05-12T23:02:36.017Z,7.97
2023-05-12T23:05:04.024Z,7.82
2023-05-12T23:07:30.601Z,7.32
2023-05-12T23:09:57.164Z,6.95
2023-05-12T23:12:23.741Z,7.72
2023-05-12T23:14:50.838Z,7.43
2023-05-12T23:17:17.416Z,7.20
2023-05-12T23:19:44.037Z,7.12
2023-05-12T23:24:46.014Z,7.18
2023-05-12T23:27:12.586Z,7.30
2023-05-12T23:29:39.171Z,7.32
2023-05-12T23:32:06.204Z,7.07
2023-05-12T23:34:32.867Z,7.10
2023-05-12T23:37:37.543Z,6.87
2023-05-12T23:40:29.186Z,7.05
2023-05-12T23:42:55.726Z,7.10
2023-05-12T23:47:57.934Z,7.80
2023-05-12T23:50:24.862Z,7.22
2023-05-12T23:52:56.458Z,8.10
2023-05-12T23:55:38.564Z,7.30
2023-05-12T23:58:05.160Z,6.85
